createdAt,value
2023-02-11T00:00:09.509Z,87.09
2023-02-11T00:02:37.180Z,86.57
2023-02-11T00:05:08.221Z,86.72
2023-02-11T00:07:36.691Z,86.15
2023-02-11T00:10:07.220Z,85.73
2023-02-11T00:12:35.153Z,86.33
2023-02-11T00:15:02.948Z,86.62
2023-02-11T00:17:33.248Z,86.47
2023-02-11T00:20:00.852Z,85.74
2023-02-11T00:22:29.956Z,85.93
2023-02-11T00:24:57.625Z,86.40
2023-02-11T00:27:25.431Z,85.12
2023-02-11T00:29:53.242Z,85.90
2023-02-11T00:32:27.151Z,84.64
2023-02-11T00:34:56.424Z,85.20
2023-02-11T00:37:23.966Z,84.97
2023-02-11T00:39:51.686Z,84.46
2023-02-11T00:42:19.270Z,84.17
2023-02-11T00:44:46.881Z,83.92
2023-02-11T00:47:18.207Z,84.62
2023-02-11T00:49:46.041Z,84.43
2023-02-11T00:52:15.673Z,84.28
2023-02-11T00:54:43.465Z,83.25
2023-02-11T00:57:11.172Z,83.24
2023-02-11T00:59:38.911Z,82.96
2023-02-11T01:02:06.484Z,82.79
2023-02-11T01:04:35.052Z,82.23
2023-02-11T01:07:05.034Z,82.50
2023-02-11T01:09:33.901Z,82.55
2023-02-11T01:12:01.885Z,82.79
2023-02-11T01:14:29.587Z,83.57
2023-02-11T01:16:57.567Z,83.21
2023-02-11T01:19:25.460Z,83.43
2023-02-11T01:21:52.990Z,83.77
2023-02-11T01:24:20.509Z,83.08
2023-02-11T01:26:49.609Z,82.25
2023-02-11T01:29:17.473Z,82.71
2023-02-11T01:31:45.987Z,82.88
2023-02-11T01:34:13.934Z,82.27
2023-02-11T01:36:42.184Z,82.01
2023-02-11T01:39:10.405Z,82.45
2023-02-11T01:41:38.587Z,82.16
2023-02-11T01:44:31.435Z,82.47
2023-02-11T01:47:00.057Z,82.60
2023-02-11T01:49:29.734Z,82.25
2023-02-11T01:52:02.748Z,83.50
2023-02-11T01:54:51.377Z,83.56
2023-02-11T01:57:23.439Z,83.80
2023-02-11T02:00:05.863Z,85.67
2023-02-11T02:02:49.508Z,85.75
2023-02-11T02:05:25.081Z,86.20
2023-02-11T02:07:59.358Z,86.50
2023-02-11T02:10:29.390Z,87.23
2023-02-11T02:13:01.132Z,86.83
2023-02-11T02:15:33.039Z,87.97
2023-02-11T02:18:09.896Z,87.92
2023-02-11T02:21:11.079Z,87.96
2023-02-11T02:24:04.886Z,87.92
2023-02-11T02:27:04.833Z,88.39
2023-02-11T02:30:12.303Z,87.23
2023-02-11T02:33:20.558Z,87.51
2023-02-11T02:35:58.987Z,88.52
2023-02-11T02:38:32.187Z,87.41
2023-02-11T02:41:05.368Z,87.57
2023-02-11T02:43:39.366Z,87.24
2023-02-11T02:46:15.624Z,88.11
2023-02-11T02:48:48.637Z,87.14
2023-02-11T02:51:36.808Z,86.85
2023-02-11T02:54:31.197Z,87.76
2023-02-11T02:57:04.953Z,88.08
2023-02-11T02:59:46.616Z,87.57
2023-02-11T03:02:24.056Z,87.61
2023-02-11T03:05:00.592Z,87.24
2023-02-11T03:07:38.421Z,87.92
2023-02-11T03:10:13.998Z,87.02
2023-02-11T03:12:45.221Z,88.04
2023-02-11T03:15:16.206Z,87.28
2023-02-11T03:17:48.327Z,87.67
2023-02-11T03:20:22.486Z,87.36
2023-02-11T03:22:54.227Z,87.41
2023-02-11T03:25:28.032Z,87.01
2023-02-11T03:28:05.837Z,87.48
2023-02-11T03:30:39.958Z,87.40
2023-02-11T03:33:15.992Z,87.61
2023-02-11T03:35:52.060Z,87.11
2023-02-11T03:38:30.949Z,87.44
2023-02-11T03:40:59.968Z,87.83
2023-02-11T03:43:32.803Z,87.85
2023-02-11T03:46:03.359Z,87.63
2023-02-11T03:48:35.857Z,86.90
2023-02-11T03:51:08.632Z,87.10
2023-02-11T03:53:39.610Z,87.58
2023-02-11T03:56:11.313Z,88.02
2023-02-11T03:58:38.828Z,87.63
2023-02-11T04:01:09.867Z,87.47
2023-02-11T04:03:38.645Z,87.54
2023-02-11T04:06:08.007Z,87.40
2023-02-11T04:08:35.665Z,87.94
2023-02-11T04:11:03.463Z,88.00
2023-02-11T04:13:31.582Z,87.28
2023-02-11T04:15:59.233Z,87.33
2023-02-11T04:18:27.222Z,87.39
2023-02-11T04:20:55.087Z,88.40
2023-02-11T04:23:24.083Z,88.28
2023-02-11T04:25:52.073Z,87.72
2023-02-11T04:28:19.893Z,87.29
2023-02-11T04:30:51.002Z,87.36
2023-02-11T04:33:26.257Z,86.67
2023-02-11T04:35:55.292Z,87.22
2023-02-11T04:38:28.827Z,86.38
2023-02-11T04:40:56.476Z,85.76
2023-02-11T04:43:24.041Z,84.13
2023-02-11T04:45:54.192Z,84.38
2023-02-11T04:48:22.145Z,83.77
2023-02-11T04:50:49.728Z,83.67
2023-02-11T04:53:17.327Z,83.64
2023-02-11T04:55:46.594Z,84.53
2023-02-11T04:58:15.271Z,84.71
2023-02-11T05:00:42.908Z,84.76
2023-02-11T05:03:12.023Z,84.76
2023-02-11T05:05:40.278Z,84.20
2023-02-11T05:08:08.142Z,84.93
2023-02-11T05:10:35.845Z,85.25
2023-02-11T05:13:05.172Z,85.08
2023-02-11T05:15:32.779Z,85.24
2023-02-11T05:18:00.543Z,85.26
2023-02-11T05:20:28.572Z,84.61
2023-02-11T05:22:58.818Z,85.37
2023-02-11T05:25:27.847Z,85.11
2023-02-11T05:27:55.430Z,84.51
2023-02-11T05:30:34.003Z,84.61
2023-02-11T05:33:03.214Z,84.70
2023-02-11T05:35:38.370Z,84.53
2023-02-11T05:38:06.722Z,84.06
2023-02-11T05:40:34.381Z,84.35
2023-02-11T05:43:02.964Z,84.50
2023-02-11T05:45:32.237Z,85.52
2023-02-11T05:47:59.894Z,85.03
2023-02-11T05:50:27.676Z,84.96
2023-02-11T05:52:55.299Z,84.74
2023-02-11T05:55:23.039Z,85.17
2023-02-11T05:57:50.631Z,84.60
2023-02-11T06:00:19.380Z,84.36
2023-02-11T06:02:49.450Z,83.93
2023-02-11T06:05:17.236Z,84.58
2023-02-11T06:07:44.856Z,85.54
2023-02-11T06:10:15.136Z,84.74
2023-02-11T06:12:42.909Z,85.30
2023-02-11T06:15:10.761Z,84.84
2023-02-11T06:17:38.294Z,84.31
2023-02-11T06:20:10.468Z,84.76
2023-02-11T06:22:38.083Z,85.21
2023-02-11T06:25:08.683Z,84.67
2023-02-11T06:27:36.314Z,84.82
2023-02-11T06:30:05.290Z,84.79
2023-02-11T06:32:43.849Z,85.48
2023-02-11T06:35:14.358Z,85.76
2023-02-11T06:37:42.333Z,85.27
2023-02-11T06:40:11.897Z,84.76
2023-02-11T06:42:39.944Z,85.53
2023-02-11T06:45:09.298Z,86.82
2023-02-11T06:47:37.084Z,87.00
2023-02-11T06:50:05.758Z,86.90
2023-02-11T06:52:38.949Z,87.89
2023-02-11T06:55:07.695Z,86.47
2023-02-11T06:57:35.263Z,86.43
2023-02-11T07:00:02.979Z,85.94
2023-02-11T07:02:31.735Z,86.18
2023-02-11T07:04:59.322Z,85.23
2023-02-11T07:07:31.284Z,85.12
2023-02-11T07:10:03.382Z,84.47
2023-02-11T07:12:31.134Z,84.25
2023-02-11T07:14:58.929Z,84.76
2023-02-11T07:17:27.593Z,83.30
2023-02-11T07:19:55.239Z,83.71
2023-02-11T07:22:23.863Z,83.44
2023-02-11T07:24:54.568Z,82.56
2023-02-11T07:27:26.258Z,82.78
2023-02-11T07:29:54.187Z,81.61
2023-02-11T07:32:21.870Z,81.73
2023-02-11T07:34:49.945Z,80.96
2023-02-11T07:37:17.889Z,80.27
2023-02-11T07:39:45.777Z,80.21
2023-02-11T07:42:13.986Z,79.84
2023-02-11T07:44:42.977Z,78.62
2023-02-11T07:47:10.616Z,77.62
2023-02-11T07:49:38.344Z,77.86
2023-02-11T07:52:06.290Z,76.97
2023-02-11T07:54:36.517Z,77.26
2023-02-11T07:57:04.136Z,76.96
2023-02-11T07:59:31.869Z,76.19
2023-02-11T08:02:11.524Z,76.27
2023-02-11T08:10:02.854Z,72.76
2023-02-11T08:12:31.161Z,71.91
2023-02-11T08:14:58.792Z,72.61
2023-02-11T08:17:28.030Z,73.03
2023-02-11T08:19:55.667Z,73.63
2023-02-11T08:22:23.320Z,74.49
2023-02-11T08:24:52.469Z,74.14
2023-02-11T08:27:20.424Z,74.17
2023-02-11T08:29:48.287Z,72.22
2023-02-11T08:32:15.961Z,72.18
2023-02-11T08:34:44.892Z,72.15
2023-02-11T08:37:12.593Z,71.81
2023-02-11T08:39:40.256Z,72.08
2023-02-11T08:42:07.913Z,71.04
2023-02-11T08:44:35.469Z,71.82
2023-02-11T08:47:03.022Z,71.47
2023-02-11T08:49:32.415Z,70.62
2023-02-11T08:52:04.171Z,70.90
2023-02-11T08:54:32.656Z,70.30
2023-02-11T08:57:04.771Z,70.32
2023-02-11T08:59:32.511Z,70.04
2023-02-11T09:02:00.119Z,69.27
2023-02-11T09:04:28.823Z,68.16
2023-02-11T09:06:56.570Z,68.50
2023-02-11T09:09:28.197Z,67.52
2023-02-11T09:11:58.319Z,67.29
2023-02-11T09:14:26.041Z,67.08
2023-02-11T09:16:54.165Z,68.27
2023-02-11T09:19:23.033Z,68.04
2023-02-11T09:21:50.744Z,66.99
2023-02-11T09:24:18.531Z,65.50
2023-02-11T09:26:50.690Z,64.87
2023-02-11T09:29:18.286Z,66.03
2023-02-11T09:31:46.079Z,67.41
2023-02-11T09:34:15.389Z,66.54
2023-02-11T09:36:43.059Z,66.87
2023-02-11T09:39:13.971Z,68.64
2023-02-11T09:42:26.180Z,68.55
2023-02-11T09:44:55.258Z,68.81
2023-02-11T09:47:31.152Z,68.56
2023-02-11T09:50:04.502Z,69.83
2023-02-11T09:52:38.455Z,69.78
2023-02-11T09:55:18.720Z,70.03
2023-02-11T09:57:48.069Z,69.36
2023-02-11T10:00:25.516Z,68.29
2023-02-11T10:03:17.724Z,68.48
2023-02-11T10:06:03.625Z,68.30
2023-02-11T10:08:44.926Z,68.20
2023-02-11T10:11:31.228Z,67.60
2023-02-11T10:14:20.530Z,67.48
2023-02-11T10:16:58.722Z,67.25
2023-02-11T10:19:38.668Z,67.09
2023-02-11T10:22:14.419Z,67.20
2023-02-11T10:24:44.721Z,66.38
2023-02-11T10:27:19.305Z,65.41
2023-02-11T10:29:55.165Z,66.76
2023-02-11T10:32:32.876Z,67.05
2023-02-11T10:35:04.788Z,68.99
2023-02-11T10:37:32.613Z,68.85
2023-02-11T10:40:01.522Z,68.83
2023-02-11T10:42:30.456Z,70.67
2023-02-11T10:45:04.291Z,70.33
2023-02-11T10:47:38.126Z,70.04
2023-02-11T10:50:19.912Z,69.59
2023-02-11T10:52:47.497Z,68.73
2023-02-11T10:55:18.077Z,69.77
2023-02-11T10:57:53.937Z,69.51
2023-02-11T11:00:37.122Z,68.17
2023-02-11T11:03:07.424Z,67.83
2023-02-11T11:05:38.212Z,68.97
2023-02-11T11:08:08.700Z,68.34
2023-02-11T11:10:47.534Z,68.28
2023-02-11T11:13:30.630Z,68.83
2023-02-11T11:16:20.777Z,68.83
2023-02-11T11:18:50.685Z,68.81
2023-02-11T11:21:22.530Z,69.44
2023-02-11T11:24:02.143Z,70.06
2023-02-11T11:26:41.205Z,70.25
2023-02-11T11:29:15.834Z,68.56
2023-02-11T11:31:52.524Z,69.27
2023-02-11T11:34:24.885Z,69.76
2023-02-11T11:36:52.889Z,70.27
2023-02-11T11:39:27.370Z,69.88
2023-02-11T11:41:58.510Z,70.07
2023-02-11T11:44:34.434Z,69.45
2023-02-11T11:47:30.296Z,69.95
2023-02-11T11:50:15.225Z,71.34
2023-02-11T11:52:52.183Z,71.48
2023-02-11T11:55:23.756Z,71.75
2023-02-11T11:57:51.730Z,71.29
2023-02-11T12:00:23.374Z,70.20
2023-02-11T12:03:32.839Z,69.90
2023-02-11T12:06:34.378Z,69.08
2023-02-11T12:09:30.708Z,68.55
2023-02-11T12:12:20.748Z,68.82
2023-02-11T12:14:59.906Z,68.80
2023-02-11T12:17:43.436Z,67.63
2023-02-11T12:20:33.884Z,67.41
2023-02-11T12:23:17.136Z,66.39
2023-02-11T12:25:52.268Z,68.22
2023-02-11T12:28:34.699Z,67.99
2023-02-11T12:31:15.190Z,67.39
2023-02-11T12:34:02.573Z,66.24
2023-02-11T12:36:46.767Z,66.77
2023-02-11T12:39:28.083Z,68.33
2023-02-11T12:42:28.656Z,67.98
2023-02-11T12:45:10.253Z,68.81
2023-02-11T12:47:49.710Z,69.15
2023-02-11T12:50:28.758Z,69.37
2023-02-11T12:53:15.064Z,70.41
2023-02-11T12:55:52.239Z,70.26
2023-02-11T12:58:35.529Z,71.65
2023-02-11T13:01:20.417Z,70.65
2023-02-11T13:03:55.707Z,69.57
2023-02-11T13:06:30.580Z,69.50
2023-02-11T13:09:03.864Z,69.51
2023-02-11T13:11:40.806Z,70.45
2023-02-11T13:14:17.184Z,71.92
2023-02-11T13:16:47.431Z,72.30
2023-02-11T13:19:25.103Z,72.36
2023-02-11T13:22:04.031Z,73.51
2023-02-11T13:24:42.691Z,74.00
2023-02-11T13:27:23.564Z,73.38
2023-02-11T13:30:14.736Z,73.96
2023-02-11T13:33:17.682Z,74.00
2023-02-11T13:35:49.658Z,75.07
2023-02-11T13:38:23.555Z,74.94
2023-02-11T13:41:06.840Z,74.53
2023-02-11T13:43:36.708Z,74.36
2023-02-11T13:46:06.562Z,75.18
2023-02-11T13:48:38.064Z,75.35
2023-02-11T13:51:08.742Z,74.86
2023-02-11T13:53:47.733Z,75.04
2023-02-11T13:56:30.438Z,75.59
2023-02-11T13:59:05.784Z,75.29
2023-02-11T14:02:15.982Z,75.22
2023-02-11T14:05:38.373Z,75.31
2023-02-11T14:08:42.162Z,75.68
2023-02-11T14:11:36.960Z,75.98
2023-02-11T14:14:18.586Z,76.06
2023-02-11T14:17:31.484Z,77.35
2023-02-11T14:20:00.395Z,78.22
2023-02-11T14:22:30.507Z,76.82
2023-02-11T14:25:01.426Z,75.79
2023-02-11T14:27:45.464Z,74.26
2023-02-11T14:30:30.190Z,74.74
2023-02-11T14:33:23.752Z,74.55
2023-02-11T14:36:02.184Z,74.31
2023-02-11T14:38:42.019Z,74.42
2023-02-11T14:41:17.195Z,74.33
2023-02-11T14:43:50.954Z,74.48
2023-02-11T14:46:21.888Z,74.19
2023-02-11T14:48:52.414Z,73.69
2023-02-11T14:51:23.208Z,74.63
2023-02-11T14:53:53.922Z,74.93
2023-02-11T14:56:24.639Z,75.60
2023-02-11T14:58:52.710Z,75.40
2023-02-11T15:01:28.983Z,76.26
2023-02-11T15:03:59.034Z,77.13
2023-02-11T15:06:29.866Z,77.09
2023-02-11T15:09:04.200Z,77.20
2023-02-11T15:11:42.145Z,77.03
2023-02-11T15:14:15.595Z,77.87
2023-02-11T15:16:54.028Z,77.39
2023-02-11T15:22:08.298Z,78.13
2023-02-11T15:24:36.429Z,79.00
2023-02-11T15:27:23.513Z,78.32
2023-02-11T15:30:03.415Z,78.22
2023-02-11T15:32:31.501Z,78.96
2023-02-11T15:35:05.279Z,79.42
2023-02-11T15:37:35.424Z,80.14
2023-02-11T15:40:19.055Z,79.96
2023-02-11T15:42:58.530Z,79.70
2023-02-11T15:45:52.743Z,80.07
2023-02-11T15:48:45.012Z,80.45
2023-02-11T15:51:40.285Z,80.09
2023-02-11T15:54:21.871Z,80.32
2023-02-11T15:56:56.306Z,80.27
2023-02-11T15:59:35.367Z,79.86
2023-02-11T16:02:12.392Z,80.95
2023-02-11T16:04:40.080Z,80.22
2023-02-11T16:07:08.339Z,79.51
2023-02-11T16:09:38.293Z,79.53
2023-02-11T16:12:29.160Z,80.09
2023-02-11T16:14:59.812Z,80.99
2023-02-11T16:20:25.728Z,80.25
2023-02-11T16:22:53.920Z,80.38
2023-02-11T16:25:28.111Z,80.63
2023-02-11T16:27:56.706Z,81.44
2023-02-11T16:30:31.807Z,81.73
2023-02-11T16:33:04.059Z,81.80
2023-02-11T16:35:39.771Z,81.43
2023-02-11T16:38:20.506Z,83.73
2023-02-11T16:40:51.350Z,82.30
2023-02-11T16:43:23.371Z,81.09
2023-02-11T16:45:52.509Z,81.37
2023-02-11T16:48:24.034Z,82.66
2023-02-11T16:50:53.642Z,82.18
2023-02-11T16:53:24.684Z,82.49
2023-02-11T16:55:54.953Z,81.92
2023-02-11T16:58:25.546Z,82.38
2023-02-11T17:01:02.537Z,82.10
2023-02-11T17:03:43.550Z,82.54
2023-02-11T17:06:13.939Z,83.37
2023-02-11T17:08:43.008Z,82.48
2023-02-11T17:11:16.714Z,82.89
2023-02-11T17:13:44.911Z,82.72
2023-02-11T17:16:24.953Z,82.62
2023-02-11T17:18:53.419Z,82.06
2023-02-11T17:21:27.640Z,82.75
2023-02-11T17:23:59.545Z,82.00
2023-02-11T17:26:34.844Z,81.89
2023-02-11T17:29:08.190Z,80.67
2023-02-11T17:31:41.385Z,80.14
2023-02-11T17:34:09.786Z,79.95
2023-02-11T17:36:37.379Z,79.87
2023-02-11T17:39:08.266Z,80.43
2023-02-11T17:41:38.794Z,80.81
2023-02-11T17:44:09.013Z,81.40
2023-02-11T17:46:36.949Z,81.33
2023-02-11T17:49:17.209Z,81.09
2023-02-11T17:51:47.209Z,81.12
2023-02-11T17:54:23.761Z,81.19
2023-02-11T17:56:56.343Z,81.55
2023-02-11T17:59:25.968Z,81.01
2023-02-11T18:01:53.942Z,80.96
2023-02-11T18:04:23.834Z,81.97
2023-02-11T18:06:54.824Z,81.19
2023-02-11T18:09:23.490Z,81.66
2023-02-11T18:11:56.813Z,81.14
2023-02-11T18:14:25.762Z,81.11
2023-02-11T18:16:54.496Z,81.74
2023-02-11T18:19:24.742Z,80.89
2023-02-11T18:21:52.742Z,80.31
2023-02-11T18:24:33.674Z,80.17
2023-02-11T18:27:03.058Z,80.89
2023-02-11T18:29:33.196Z,80.37
2023-02-11T18:32:10.861Z,80.32
2023-02-11T18:34:40.956Z,80.27
2023-02-11T18:37:09.101Z,81.57
2023-02-11T18:39:42.262Z,81.26
2023-02-11T18:42:16.937Z,82.00
2023-02-11T18:44:46.300Z,81.93
2023-02-11T18:47:16.799Z,83.09
2023-02-11T18:49:46.161Z,83.18
2023-02-11T18:52:23.344Z,83.11
2023-02-11T18:54:54.856Z,82.75
2023-02-11T18:57:24.810Z,82.70
2023-02-11T18:59:52.769Z,83.70
2023-02-11T19:02:24.399Z,83.65
2023-02-11T19:04:53.735Z,83.22
2023-02-11T19:07:25.273Z,83.03
2023-02-11T19:09:55.745Z,83.23
2023-02-11T19:12:25.179Z,83.13
2023-02-11T19:14:53.035Z,82.74
2023-02-11T19:17:20.606Z,82.99
2023-02-11T19:20:05.906Z,82.88
2023-02-11T19:22:39.874Z,82.81
2023-02-11T19:25:09.296Z,82.11
2023-02-11T19:27:47.748Z,81.71
2023-02-11T19:30:18.756Z,82.08
2023-02-11T19:32:56.794Z,82.20
2023-02-11T19:35:33.248Z,81.81
2023-02-11T19:38:03.450Z,81.71
2023-02-11T19:40:36.569Z,81.59
2023-02-11T19:43:05.855Z,82.25
2023-02-11T19:45:33.827Z,82.82
2023-02-11T19:48:04.348Z,82.18
2023-02-11T19:50:33.425Z,82.28
2023-02-11T19:53:05.699Z,82.37
2023-02-11T19:55:38.434Z,83.14
2023-02-11T19:58:07.546Z,82.29
2023-02-11T20:00:35.088Z,81.92
2023-02-11T20:03:03.340Z,81.61
2023-02-11T20:05:31.455Z,81.23
2023-02-11T20:08:01.433Z,82.05
2023-02-11T20:10:29.316Z,81.92
2023-02-11T20:12:56.867Z,81.94
2023-02-11T20:15:32.031Z,82.79
2023-02-11T20:18:09.291Z,82.68
2023-02-11T20:20:39.484Z,82.30
2023-02-11T20:23:07.945Z,82.75
2023-02-11T20:25:47.031Z,81.76
2023-02-11T20:28:18.320Z,82.36
2023-02-11T20:30:56.776Z,82.42
2023-02-11T20:33:26.340Z,82.44
2023-02-11T20:36:14.424Z,82.21
2023-02-11T20:38:47.946Z,82.77
2023-02-11T20:41:20.871Z,83.12
2023-02-11T20:44:00.636Z,82.92
2023-02-11T20:46:35.494Z,82.57
2023-02-11T20:49:05.080Z,83.01
2023-02-11T20:51:36.870Z,83.70
2023-02-11T20:54:08.029Z,83.62
2023-02-11T20:56:39.612Z,84.26
2023-02-11T20:59:10.277Z,84.79
2023-02-11T21:01:41.988Z,84.12
2023-02-11T21:04:21.635Z,83.90
2023-02-11T21:06:52.290Z,82.73
2023-02-11T21:09:25.787Z,83.42
2023-02-11T21:12:02.409Z,84.42
2023-02-11T21:14:30.558Z,84.08
2023-02-11T21:17:07.420Z,84.55
2023-02-11T21:19:36.019Z,84.53
2023-02-11T21:22:07.952Z,85.28
2023-02-11T21:24:36.844Z,85.39
2023-02-11T21:27:06.032Z,84.72
2023-02-11T21:29:45.752Z,84.76
2023-02-11T21:32:28.370Z,84.75
2023-02-11T21:35:01.855Z,84.42
2023-02-11T21:37:30.329Z,85.39
2023-02-11T21:40:00.807Z,85.37
2023-02-11T21:42:29.583Z,85.60
2023-02-11T21:47:51.024Z,85.41
2023-02-11T21:50:29.167Z,84.88
2023-02-11T21:52:58.599Z,85.05
2023-02-11T21:55:28.256Z,84.90
2023-02-11T21:57:56.379Z,83.65
2023-02-11T22:00:37.298Z,83.87
2023-02-11T22:03:16.521Z,83.81
2023-02-11T22:05:44.615Z,83.88
2023-02-11T22:08:17.459Z,83.81
2023-02-11T22:10:46.161Z,83.02
2023-02-11T22:13:14.457Z,82.96
2023-02-11T22:15:42.427Z,83.09
2023-02-11T22:18:17.978Z,83.30
2023-02-11T22:20:47.440Z,83.90
2023-02-11T22:23:15.573Z,84.20
2023-02-11T22:25:46.724Z,84.12
2023-02-11T22:28:22.812Z,83.88
2023-02-11T22:30:55.383Z,83.94
2023-02-11T22:33:56.549Z,84.28
2023-02-11T22:36:46.619Z,84.04
2023-02-11T22:42:28.093Z,83.92
2023-02-11T22:44:56.043Z,83.79
2023-02-11T22:47:23.576Z,83.95
2023-02-11T22:49:53.970Z,84.71
2023-02-11T22:52:22.607Z,85.50
2023-02-11T22:54:55.559Z,85.23
2023-02-11T22:57:24.555Z,85.20
2023-02-11T22:59:53.078Z,84.45
2023-02-11T23:02:21.222Z,84.89
2023-02-11T23:04:50.011Z,84.16
2023-02-11T23:07:17.698Z,84.24
2023-02-11T23:09:45.404Z,83.86
2023-02-11T23:12:12.894Z,84.56
2023-02-11T23:14:42.608Z,83.67
2023-02-11T23:17:10.239Z,83.58
2023-02-11T23:19:38.073Z,83.77
2023-02-11T23:22:05.568Z,85.18
2023-02-11T23:24:33.147Z,85.93
2023-02-11T23:27:00.820Z,86.82
2023-02-11T23:29:28.460Z,85.51
2023-02-11T23:31:59.007Z,85.00
2023-02-11T23:34:26.783Z,85.66
2023-02-11T23:36:54.747Z,86.40
2023-02-11T23:39:22.398Z,86.16
2023-02-11T23:41:52.692Z,85.46
2023-02-11T23:44:20.301Z,85.10
2023-02-11T23:46:48.648Z,84.86
2023-02-11T23:49:17.499Z,84.90
2023-02-11T23:51:45.136Z,85.46
2023-02-11T23:54:15.541Z,85.12
2023-02-11T23:56:43.594Z,85.23
2023-02-11T23:59:11.558Z,84.88
